createdAt,value
2024-04-22T00:00:09.157Z,3.60
2024-04-22T00:02:36.411Z,3.80
2024-04-22T00:05:03.773Z,3.70
2024-04-22T00:07:30.985Z,3.90
2024-04-22T00:09:58.148Z,4.00
2024-04-22T00:12:25.530Z,3.80
2024-04-22T00:14:52.750Z,3.90
2024-04-22T00:17:20.027Z,3.90
2024-04-22T00:19:47.286Z,3.90
2024-04-22T00:22:14.527Z,3.90
2024-04-22T00:24:41.906Z,3.90
2024-04-22T00:27:09.052Z,3.80
2024-04-22T00:29:36.294Z,3.90
2024-04-22T00:32:03.610Z,3.80
2024-04-22T00:34:30.783Z,3.80
2024-04-22T00:36:58.030Z,3.90
2024-04-22T00:39:25.158Z,3.80
2024-04-22T00:41:52.433Z,3.80
2024-04-22T00:44:19.998Z,3.70
2024-04-22T00:46:47.240Z,3.80
2024-04-22T00:49:14.930Z,3.70
2024-04-22T00:51:42.378Z,3.70
2024-04-22T00:54:12.721Z,3.70
2024-04-22T00:56:40.706Z,3.70
2024-04-22T00:59:08.238Z,3.70
2024-04-22T01:01:37.268Z,3.70
2024-04-22T01:04:05.499Z,3.70
2024-04-22T01:06:32.802Z,3.80
2024-04-22T01:08:59.959Z,3.70
2024-04-22T01:11:27.299Z,3.60
2024-04-22T01:13:58.977Z,3.50
2024-04-22T01:16:26.271Z,3.50
2024-04-22T01:18:53.425Z,3.40
2024-04-22T01:21:29.971Z,3.40
2024-04-22T01:24:01.705Z,3.50
2024-04-22T01:26:28.929Z,3.50
2024-04-22T01:28:56.378Z,3.50
2024-04-22T01:31:23.731Z,3.50
2024-04-22T01:33:50.920Z,3.40
2024-04-22T01:36:18.113Z,3.40
2024-04-22T01:38:45.964Z,3.30
2024-04-22T01:41:13.114Z,3.30
2024-04-22T01:43:40.381Z,3.20
2024-04-22T01:46:07.638Z,3.30
2024-04-22T01:48:35.004Z,3.30
2024-04-22T01:51:02.137Z,3.30
2024-04-22T01:53:29.475Z,3.20
2024-04-22T01:55:59.004Z,3.30
2024-04-22T01:58:26.775Z,3.30
2024-04-22T02:00:54.133Z,3.30
2024-04-22T02:03:21.495Z,3.30
2024-04-22T02:05:48.701Z,3.10
2024-04-22T02:08:15.975Z,3.20
2024-04-22T02:10:43.192Z,3.20
2024-04-22T02:13:10.521Z,3.10
2024-04-22T02:15:37.681Z,3.20
2024-04-22T02:18:05.164Z,3.20
2024-04-22T02:20:32.326Z,3.20
2024-04-22T02:22:59.664Z,3.20
2024-04-22T02:25:26.810Z,3.20
2024-04-22T02:27:55.416Z,3.20
2024-04-22T02:30:22.521Z,3.10
2024-04-22T02:32:49.715Z,3.00
2024-04-22T02:35:16.876Z,3.10
2024-04-22T02:37:44.124Z,3.10
2024-04-22T02:40:11.507Z,3.00
2024-04-22T02:42:38.765Z,3.10
2024-04-22T02:45:06.146Z,3.20
2024-04-22T02:47:33.448Z,3.00
2024-04-22T02:50:00.768Z,3.00
2024-04-22T02:52:27.973Z,2.80
2024-04-22T02:54:55.205Z,2.80
2024-04-22T02:57:22.369Z,2.70
2024-04-22T02:59:49.599Z,2.80
2024-04-22T03:02:16.829Z,2.90
2024-04-22T03:04:44.097Z,2.90
2024-04-22T03:07:11.527Z,2.70
2024-04-22T03:09:41.799Z,2.60
2024-04-22T03:12:09.355Z,2.60
2024-04-22T03:14:37.119Z,2.70
2024-04-22T03:17:04.650Z,2.80
2024-04-22T03:19:32.078Z,2.80
2024-04-22T03:21:59.255Z,2.80
2024-04-22T03:24:26.472Z,2.80
2024-04-22T03:26:53.624Z,2.60
2024-04-22T03:29:20.867Z,2.70
2024-04-22T03:31:48.123Z,2.80
2024-04-22T03:34:15.498Z,2.70
2024-04-22T03:36:42.707Z,2.80
2024-04-22T03:39:09.910Z,2.70
2024-04-22T03:41:37.068Z,2.70
2024-04-22T03:44:04.348Z,2.60
2024-04-22T03:46:50.172Z,2.70
2024-04-22T03:49:36.080Z,2.80
2024-04-22T03:52:03.365Z,2.70
2024-04-22T03:54:30.661Z,2.70
2024-04-22T03:56:57.780Z,2.70
2024-04-22T03:59:25.283Z,2.70
2024-04-22T04:01:52.444Z,2.60
2024-04-22T04:04:19.906Z,2.80
2024-04-22T04:06:47.134Z,2.50
2024-04-22T04:09:14.589Z,2.70
2024-04-22T04:11:41.870Z,2.80
2024-04-22T04:14:09.549Z,2.70
2024-04-22T04:16:36.908Z,2.60
2024-04-22T04:19:04.168Z,2.40
2024-04-22T04:21:31.324Z,2.30
2024-04-22T04:23:58.518Z,2.30
2024-04-22T04:26:25.617Z,2.50
2024-04-22T04:28:53.008Z,2.60
2024-04-22T04:31:20.302Z,2.40
2024-04-22T04:33:47.634Z,2.20
2024-04-22T04:36:14.769Z,2.30
2024-04-22T04:38:42.004Z,2.40
2024-04-22T04:41:09.172Z,2.20
2024-04-22T04:43:36.527Z,2.20
2024-04-22T04:46:03.798Z,2.20
2024-04-22T04:48:31.153Z,2.30
2024-04-22T04:50:58.350Z,2.30
2024-04-22T04:53:25.611Z,2.20
2024-04-22T04:55:52.851Z,2.20
2024-04-22T04:58:22.961Z,2.20
2024-04-22T05:00:52.163Z,2.20
2024-04-22T05:03:19.438Z,2.10
2024-04-22T05:05:46.746Z,2.00
2024-04-22T05:08:13.885Z,2.20
2024-04-22T05:10:41.221Z,2.30
2024-04-22T05:13:08.394Z,2.30
2024-04-22T05:15:35.614Z,2.40
2024-04-22T05:18:02.831Z,2.40
2024-04-22T05:20:31.481Z,2.40
2024-04-22T05:22:59.370Z,2.40
2024-04-22T05:25:26.579Z,2.30
2024-04-22T05:27:54.478Z,2.50
2024-04-22T05:30:22.810Z,2.40
2024-04-22T05:32:50.166Z,2.20
2024-04-22T05:35:36.209Z,2.30
2024-04-22T05:38:03.531Z,2.00
2024-04-22T05:40:30.814Z,1.90
2024-04-22T05:42:59.131Z,2.00
2024-04-22T05:45:26.446Z,2.00
2024-04-22T05:47:53.747Z,2.10
2024-04-22T05:50:20.999Z,2.10
2024-04-22T05:52:48.263Z,2.10
2024-04-22T05:55:15.505Z,2.10
2024-04-22T05:57:43.823Z,2.10
2024-04-22T06:00:12.281Z,2.10
2024-04-22T06:02:39.704Z,2.30
2024-04-22T06:05:07.126Z,2.20
2024-04-22T06:07:34.318Z,2.20
2024-04-22T06:10:01.487Z,2.20
2024-04-22T06:12:28.665Z,2.20
2024-04-22T06:14:55.800Z,2.40
2024-04-22T06:17:23.016Z,2.40
2024-04-22T06:19:50.193Z,2.40
2024-04-22T06:22:18.143Z,2.50
2024-04-22T06:24:45.308Z,2.50
2024-04-22T06:27:12.603Z,2.60
2024-04-22T06:29:39.854Z,2.70
2024-04-22T06:32:07.457Z,2.70
2024-04-22T06:34:35.462Z,2.70
2024-04-22T06:37:02.637Z,2.60
2024-04-22T06:39:29.786Z,2.60
2024-04-22T06:41:57.052Z,2.50
2024-04-22T06:44:24.234Z,2.70
2024-04-22T06:46:51.528Z,2.60
2024-04-22T06:49:18.746Z,2.60
2024-04-22T06:51:45.991Z,2.60
2024-04-22T06:54:13.109Z,2.70
2024-04-22T06:56:41.696Z,2.80
2024-04-22T06:59:10.070Z,2.80
2024-04-22T07:01:40.401Z,2.90
2024-04-22T07:04:08.466Z,2.90
2024-04-22T07:06:35.762Z,2.90
2024-04-22T07:09:11.071Z,2.90
2024-04-22T07:11:38.855Z,3.00
2024-04-22T07:14:07.069Z,3.20
2024-04-22T07:16:35.485Z,3.10
2024-04-22T07:19:02.788Z,3.30
2024-04-22T07:21:29.979Z,3.40
2024-04-22T07:23:57.119Z,3.40
2024-04-22T07:26:24.584Z,3.40
2024-04-22T07:28:54.997Z,3.50
2024-04-22T07:31:22.819Z,3.60
2024-04-22T07:33:50.364Z,3.50
2024-04-22T07:36:40.938Z,3.60
2024-04-22T07:39:08.524Z,3.60
2024-04-22T07:41:36.230Z,3.70
2024-04-22T07:44:04.121Z,3.70
2024-04-22T07:46:31.942Z,3.80
2024-04-22T07:48:59.156Z,3.80
2024-04-22T07:51:26.395Z,4.00
2024-04-22T07:53:54.665Z,4.10
2024-04-22T07:56:25.517Z,4.10
2024-04-22T07:58:52.958Z,4.10
2024-04-22T08:01:20.744Z,4.20
2024-04-22T08:03:48.265Z,4.20
2024-04-22T08:06:20.907Z,4.30
2024-04-22T08:08:48.262Z,4.40
2024-04-22T08:11:15.518Z,4.50
2024-04-22T08:13:42.749Z,4.60
2024-04-22T08:16:10.037Z,4.80
2024-04-22T08:18:37.147Z,4.90
2024-04-22T08:21:06.697Z,5.20
2024-04-22T08:23:34.911Z,5.30
2024-04-22T08:26:02.336Z,5.30
2024-04-22T08:28:29.506Z,5.20
2024-04-22T08:31:10.173Z,5.00
2024-04-22T08:33:37.596Z,4.90
2024-04-22T08:36:06.100Z,5.00
2024-04-22T08:38:33.413Z,5.20
2024-04-22T08:41:00.849Z,5.40
2024-04-22T08:43:28.264Z,5.40
2024-04-22T08:45:55.438Z,5.30
2024-04-22T08:48:22.912Z,5.20
2024-04-22T08:50:53.773Z,5.50
2024-04-22T08:53:21.146Z,5.90
2024-04-22T08:55:48.509Z,5.80
2024-04-22T08:58:15.833Z,6.20
2024-04-22T09:00:44.265Z,6.20
2024-04-22T09:03:11.633Z,6.30
2024-04-22T09:05:40.715Z,6.30
2024-04-22T09:08:10.448Z,6.50
2024-04-22T09:11:11.871Z,6.60
2024-04-22T09:13:28.930Z,6.90
2024-04-22T09:15:59.698Z,7.00
2024-04-22T09:18:29.795Z,6.70
2024-04-22T09:21:08.588Z,7.00
2024-04-22T09:23:37.936Z,7.60
2024-04-22T09:26:06.642Z,7.50
2024-04-22T09:28:38.755Z,6.90
2024-04-22T09:31:08.959Z,6.50
2024-04-22T09:33:37.701Z,6.10
2024-04-22T09:36:06.844Z,6.10
2024-04-22T09:38:44.291Z,6.10
2024-04-22T09:41:15.921Z,6.00
2024-04-22T09:43:53.506Z,6.00
2024-04-22T09:46:23.500Z,6.00
2024-04-22T09:48:51.559Z,6.10
2024-04-22T09:51:19.627Z,6.10
2024-04-22T09:53:47.659Z,6.10
2024-04-22T09:56:22.749Z,6.10
2024-04-22T09:58:50.278Z,6.00
2024-04-22T10:01:17.723Z,6.00
2024-04-22T10:03:45.544Z,6.00
2024-04-22T10:06:13.604Z,6.00
2024-04-22T10:08:41.009Z,6.00
2024-04-22T10:11:10.372Z,6.10
2024-04-22T10:13:38.123Z,7.20
2024-04-22T10:16:06.639Z,8.20
2024-04-22T10:18:34.498Z,8.50
2024-04-22T10:21:03.732Z,8.80
2024-04-22T10:23:30.938Z,8.50
2024-04-22T10:25:58.435Z,8.00
2024-04-22T10:28:25.713Z,7.90
2024-04-22T10:30:57.990Z,7.60
2024-04-22T10:33:25.281Z,7.60
2024-04-22T10:35:52.451Z,7.70
2024-04-22T10:38:19.917Z,7.60
2024-04-22T10:40:47.184Z,7.50
2024-04-22T10:43:14.627Z,7.50
2024-04-22T10:45:41.866Z,7.50
2024-04-22T10:48:15.695Z,7.70
2024-04-22T10:50:48.195Z,7.50
2024-04-22T10:53:15.550Z,7.70
2024-04-22T10:55:43.002Z,7.70
2024-04-22T10:58:10.959Z,7.70
2024-04-22T11:00:39.150Z,7.60
2024-04-22T11:03:08.831Z,7.60
2024-04-22T11:05:36.908Z,7.50
2024-04-22T11:08:04.638Z,7.30
2024-04-22T11:10:38.319Z,7.30
2024-04-22T11:13:10.687Z,7.10
2024-04-22T11:15:38.018Z,7.30
2024-04-22T11:18:09.509Z,7.20
2024-04-22T11:20:37.746Z,7.50
2024-04-22T11:23:06.225Z,7.50
2024-04-22T11:25:33.803Z,7.40
2024-04-22T11:28:01.740Z,7.60
2024-04-22T11:30:30.108Z,7.50
2024-04-22T11:32:57.462Z,7.70
2024-04-22T11:35:24.892Z,7.70
2024-04-22T11:37:55.197Z,7.80
2024-04-22T11:40:22.662Z,8.00
2024-04-22T11:42:49.873Z,8.10
2024-04-22T11:45:17.256Z,8.40
2024-04-22T11:47:44.466Z,8.30
2024-04-22T11:50:11.814Z,8.20
2024-04-22T11:52:39.701Z,7.90
2024-04-22T11:55:07.060Z,7.80
2024-04-22T11:57:34.348Z,7.60
2024-04-22T12:00:01.515Z,7.90
2024-04-22T12:02:36.251Z,8.20
2024-04-22T12:05:09.237Z,8.60
2024-04-22T12:07:38.146Z,9.00
2024-04-22T12:10:05.910Z,9.70
2024-04-22T12:12:33.019Z,10.20
2024-04-22T12:15:02.851Z,10.30
2024-04-22T12:17:32.117Z,10.50
2024-04-22T12:19:59.249Z,10.40
2024-04-22T12:22:26.564Z,10.60
2024-04-22T12:24:54.388Z,10.90
2024-04-22T12:27:23.412Z,10.90
2024-04-22T12:29:51.678Z,11.00
2024-04-22T12:32:19.780Z,10.80
2024-04-22T12:34:47.012Z,10.60
2024-04-22T12:37:14.219Z,11.10
2024-04-22T12:39:42.707Z,11.60
2024-04-22T12:42:10.078Z,11.90
2024-04-22T12:44:38.247Z,12.10
2024-04-22T12:47:24.242Z,12.30
2024-04-22T12:50:09.985Z,12.20
2024-04-22T12:52:37.272Z,11.10
2024-04-22T12:55:05.668Z,10.20
2024-04-22T12:57:33.955Z,9.50
2024-04-22T13:00:08.199Z,9.30
2024-04-22T13:02:36.164Z,9.30
2024-04-22T13:05:03.580Z,9.20
2024-04-22T13:07:30.797Z,9.00
2024-04-22T13:09:58.034Z,8.90
2024-04-22T13:12:26.832Z,9.00
2024-04-22T13:14:54.114Z,8.90
2024-04-22T13:17:21.434Z,8.70
2024-04-22T13:19:48.821Z,8.60
2024-04-22T13:22:16.285Z,8.60
2024-04-22T13:24:43.673Z,8.80
2024-04-22T13:27:10.809Z,8.80
2024-04-22T13:29:38.011Z,8.50
2024-04-22T13:32:06.535Z,8.50
2024-04-22T13:34:33.936Z,8.30
2024-04-22T13:37:01.298Z,8.40
2024-04-22T13:39:28.457Z,8.60
2024-04-22T13:41:56.011Z,8.70
2024-04-22T13:44:23.251Z,8.80
2024-04-22T13:46:50.620Z,8.90
2024-04-22T13:49:18.232Z,8.80
2024-04-22T13:51:46.716Z,8.90
2024-04-22T13:54:14.114Z,9.10
2024-04-22T13:56:41.410Z,9.90
2024-04-22T13:59:08.693Z,10.70
2024-04-22T14:01:36.153Z,11.20
2024-04-22T14:04:03.532Z,11.40
2024-04-22T14:06:30.912Z,11.90
2024-04-22T14:08:58.145Z,12.10
2024-04-22T14:11:25.635Z,11.60
2024-04-22T14:13:53.512Z,11.10
2024-04-22T14:16:20.739Z,10.40
2024-04-22T14:18:48.195Z,10.30
2024-04-22T14:21:15.508Z,10.20
2024-04-22T14:23:42.699Z,10.20
2024-04-22T14:26:09.927Z,10.20
2024-04-22T14:28:39.656Z,9.90
2024-04-22T14:31:08.851Z,10.00
2024-04-22T14:33:36.153Z,9.80
2024-04-22T14:36:03.453Z,9.50
2024-04-22T14:38:30.999Z,9.40
2024-04-22T14:40:58.313Z,9.30
2024-04-22T14:43:25.705Z,9.10
2024-04-22T14:45:52.877Z,9.10
2024-04-22T14:48:20.214Z,9.00
2024-04-22T14:50:53.677Z,9.10
2024-04-22T14:53:21.227Z,9.10
2024-04-22T14:55:48.693Z,9.00
2024-04-22T14:58:15.974Z,8.90
2024-04-22T15:00:43.481Z,8.70
2024-04-22T15:03:10.846Z,8.80
2024-04-22T15:05:38.003Z,8.80
2024-04-22T15:08:05.685Z,8.70
2024-04-22T15:10:32.849Z,8.70
2024-04-22T15:13:00.061Z,8.70
2024-04-22T15:15:27.210Z,8.40
2024-04-22T15:17:54.431Z,8.60
2024-04-22T15:20:21.679Z,9.00
2024-04-22T15:22:48.925Z,8.90
2024-04-22T15:25:16.706Z,9.30
2024-04-22T15:27:43.856Z,9.40
2024-04-22T15:30:11.301Z,9.30
2024-04-22T15:32:40.183Z,9.30
2024-04-22T15:35:07.925Z,9.30
2024-04-22T15:37:35.192Z,9.50
2024-04-22T15:40:02.416Z,9.50
2024-04-22T15:42:29.596Z,9.40
2024-04-22T15:44:56.976Z,9.70
2024-04-22T15:47:24.246Z,9.90
2024-04-22T15:49:51.580Z,9.70
2024-04-22T15:52:19.237Z,9.60
2024-04-22T15:54:46.485Z,9.70
2024-04-22T15:57:13.851Z,9.80
2024-04-22T15:59:50.889Z,9.80
2024-04-22T16:02:23.459Z,9.70
2024-04-22T16:04:50.877Z,9.90
2024-04-22T16:07:18.184Z,10.00
2024-04-22T16:09:47.403Z,10.10
2024-04-22T16:12:14.702Z,10.00
2024-04-22T16:14:42.053Z,9.90
2024-04-22T16:17:09.562Z,9.90
2024-04-22T16:19:36.750Z,9.50
2024-04-22T16:22:04.181Z,9.00
2024-04-22T16:24:31.367Z,8.80
2024-04-22T16:26:58.539Z,8.80
2024-04-22T16:29:25.775Z,8.80
2024-04-22T16:31:53.011Z,8.70
2024-04-22T16:34:20.434Z,8.80
2024-04-22T16:36:47.582Z,8.90
2024-04-22T16:39:14.882Z,8.80
2024-04-22T16:41:42.055Z,8.80
2024-04-22T16:44:09.400Z,8.90
2024-04-22T16:46:36.848Z,8.80
2024-04-22T16:49:04.038Z,9.00
2024-04-22T16:51:31.398Z,9.10
2024-04-22T16:53:58.557Z,8.90
2024-04-22T16:56:25.946Z,9.10
2024-04-22T16:58:53.089Z,9.10
2024-04-22T17:01:20.526Z,9.20
2024-04-22T17:03:47.998Z,9.10
2024-04-22T17:06:17.141Z,9.10
2024-04-22T17:08:44.301Z,9.00
2024-04-22T17:11:11.787Z,9.20
2024-04-22T17:13:39.143Z,9.00
2024-04-22T17:16:06.986Z,8.90
2024-04-22T17:18:34.296Z,8.80
2024-04-22T17:21:01.830Z,8.80
2024-04-22T17:23:29.424Z,8.70
2024-04-22T17:25:56.749Z,8.80
2024-04-22T17:28:24.505Z,8.80
2024-04-22T17:30:52.449Z,8.80
2024-04-22T17:33:20.239Z,8.70
2024-04-22T17:35:50.729Z,8.70
2024-04-22T17:38:23.248Z,8.70
2024-04-22T17:40:57.232Z,8.70
2024-04-22T17:43:25.235Z,8.70
2024-04-22T17:46:03.283Z,8.50
2024-04-22T17:48:31.674Z,8.50
2024-04-22T17:50:59.331Z,8.20
2024-04-22T17:53:28.452Z,8.20
2024-04-22T17:55:56.410Z,8.10
2024-04-22T17:58:23.925Z,7.90
2024-04-22T18:00:51.341Z,8.00
2024-04-22T18:03:18.876Z,8.00
2024-04-22T18:05:47.010Z,8.00
2024-04-22T18:08:14.423Z,7.90
2024-04-22T18:10:47.403Z,7.70
2024-04-22T18:13:15.507Z,7.80
2024-04-22T18:15:42.740Z,7.50
2024-04-22T18:18:10.691Z,7.40
2024-04-22T18:20:38.048Z,7.40
2024-04-22T18:23:05.400Z,7.40
2024-04-22T18:25:38.454Z,7.30
2024-04-22T18:28:08.356Z,7.20
2024-04-22T18:30:38.546Z,7.10
2024-04-22T18:33:07.747Z,7.20
2024-04-22T18:35:34.922Z,7.30
2024-04-22T18:38:02.125Z,7.00
2024-04-22T18:40:29.465Z,7.20
2024-04-22T18:42:56.582Z,7.10
2024-04-22T18:45:25.430Z,6.90
2024-04-22T18:47:52.697Z,7.10
2024-04-22T18:50:20.112Z,7.00
2024-04-22T18:52:47.659Z,7.10
2024-04-22T18:55:14.986Z,7.10
2024-04-22T18:57:42.139Z,7.10
2024-04-22T19:00:11.531Z,7.00
2024-04-22T19:02:38.934Z,7.00
2024-04-22T19:05:07.804Z,6.90
2024-04-22T19:07:36.290Z,6.90
2024-04-22T19:10:04.598Z,6.80
2024-04-22T19:12:31.870Z,6.80
2024-04-22T19:14:59.314Z,6.80
2024-04-22T19:17:26.565Z,6.80
2024-04-22T19:19:53.965Z,6.70
2024-04-22T19:22:21.190Z,6.60
2024-04-22T19:24:48.350Z,6.60
2024-04-22T19:27:15.570Z,6.60
2024-04-22T19:29:42.716Z,6.50
2024-04-22T19:32:10.296Z,6.30
2024-04-22T19:34:37.630Z,6.30
2024-04-22T19:37:05.059Z,6.20
2024-04-22T19:39:32.287Z,6.40
2024-04-22T19:41:59.508Z,6.30
2024-04-22T19:44:26.638Z,6.20
2024-04-22T19:46:57.266Z,6.10
2024-04-22T19:49:24.712Z,6.10
2024-04-22T19:51:51.994Z,6.10
2024-04-22T19:54:19.603Z,6.20
2024-04-22T19:56:46.831Z,6.10
2024-04-22T19:59:14.040Z,6.00
2024-04-22T20:01:41.285Z,5.80
2024-04-22T20:04:08.565Z,5.90
2024-04-22T20:06:35.752Z,5.80
2024-04-22T20:09:03.207Z,5.80
2024-04-22T20:11:30.476Z,5.80
2024-04-22T20:13:57.755Z,5.80
2024-04-22T20:16:45.095Z,5.70
2024-04-22T20:19:18.617Z,5.70
2024-04-22T20:21:48.955Z,5.50
2024-04-22T20:24:17.168Z,5.60
2024-04-22T20:26:44.725Z,5.50
2024-04-22T20:29:11.978Z,5.50
2024-04-22T20:31:39.321Z,5.50
2024-04-22T20:34:06.774Z,5.50
2024-04-22T20:36:33.936Z,5.70
2024-04-22T20:39:01.184Z,5.80
2024-04-22T20:41:28.333Z,5.70
2024-04-22T20:43:56.240Z,5.50
2024-04-22T20:46:23.554Z,5.30
2024-04-22T20:48:50.800Z,5.30
2024-04-22T20:51:18.072Z,5.20
2024-04-22T20:53:45.251Z,5.20
2024-04-22T20:56:12.888Z,5.30
2024-04-22T20:58:40.191Z,5.30
2024-04-22T21:01:08.763Z,5.20
2024-04-22T21:03:36.228Z,5.10
2024-04-22T21:06:04.997Z,5.00
2024-04-22T21:08:33.141Z,5.20
2024-04-22T21:11:03.678Z,5.20
2024-04-22T21:14:04.073Z,5.10
2024-04-22T21:16:31.545Z,4.80
2024-04-22T21:19:07.411Z,4.90
2024-04-22T21:21:42.136Z,4.80
2024-04-22T21:24:09.308Z,4.80
2024-04-22T21:26:36.588Z,4.80
2024-04-22T21:29:03.806Z,4.80
2024-04-22T21:31:31.507Z,4.80
2024-04-22T21:36:31.099Z,5.10
2024-04-22T21:38:58.297Z,5.10
2024-04-22T21:41:25.479Z,4.90
2024-04-22T21:43:52.854Z,4.90
2024-04-22T21:46:20.133Z,4.70
2024-04-22T21:48:47.319Z,4.90
2024-04-22T21:51:14.476Z,4.80
2024-04-22T21:53:41.929Z,4.80
2024-04-22T21:56:09.569Z,4.70
2024-04-22T21:59:14.266Z,4.80
2024-04-22T22:02:19.342Z,5.00
2024-04-22T22:05:25.059Z,4.80
2024-04-22T22:07:52.226Z,4.80
2024-04-22T22:10:19.635Z,4.70
2024-04-22T22:12:46.758Z,4.80
2024-04-22T22:15:14.579Z,4.20
2024-04-22T22:17:42.550Z,4.40
2024-04-22T22:20:10.313Z,4.30
2024-04-22T22:22:37.497Z,4.30
2024-04-22T22:25:08.506Z,4.30
2024-04-22T22:27:35.803Z,4.50
2024-04-22T22:30:03.316Z,4.50
2024-04-22T22:32:30.980Z,4.60
2024-04-22T22:34:58.352Z,4.50
2024-04-22T22:37:25.581Z,4.50
2024-04-22T22:39:52.702Z,4.20
2024-04-22T22:42:19.899Z,4.30
2024-04-22T22:44:47.023Z,4.20
2024-04-22T22:47:14.350Z,4.10
2024-04-22T22:49:41.618Z,4.30
2024-04-22T22:52:08.887Z,4.10
2024-04-22T22:54:36.147Z,4.10
2024-04-22T22:57:03.424Z,4.30
2024-04-22T22:59:30.684Z,4.00
2024-04-22T23:01:58.202Z,4.10
2024-04-22T23:04:25.533Z,4.00
2024-04-22T23:06:52.883Z,3.90
2024-04-22T23:09:20.049Z,4.10
2024-04-22T23:11:47.322Z,3.90
2024-04-22T23:14:14.493Z,3.90
2024-04-22T23:16:41.672Z,3.90
2024-04-22T23:19:08.900Z,4.00
2024-04-22T23:21:36.127Z,4.00
2024-04-22T23:24:03.327Z,3.90
2024-04-22T23:26:30.513Z,3.50
2024-04-22T23:28:57.735Z,3.50
2024-04-22T23:31:25.020Z,3.50
2024-04-22T23:33:52.149Z,3.40
2024-04-22T23:36:19.384Z,3.30
2024-04-22T23:38:46.505Z,3.10
2024-04-22T23:41:13.720Z,3.30
2024-04-22T23:43:41.389Z,3.50
2024-04-22T23:46:08.676Z,3.30
2024-04-22T23:48:35.933Z,3.40
2024-04-22T23:51:03.169Z,3.40
2024-04-22T23:53:30.298Z,3.40
2024-04-22T23:55:57.625Z,3.30
2024-04-22T23:58:24.948Z,3.70
